createdAt,value
2023-02-01T00:00:43.719Z,100672.09
2023-02-01T00:03:12.187Z,100657.09
2023-02-01T00:05:39.674Z,100642.72
2023-02-01T00:08:07.104Z,100648.88
2023-02-01T00:10:34.598Z,100645.38
2023-02-01T00:13:03.381Z,100641.25
2023-02-01T00:15:30.878Z,100641.94
2023-02-01T00:17:58.388Z,100643.19
2023-02-01T00:20:25.873Z,100639.28
2023-02-01T00:22:53.316Z,100652.38
2023-02-01T00:25:20.974Z,100622.41
2023-02-01T00:27:50.981Z,100639.03
2023-02-01T00:30:20.606Z,100649.50
2023-02-01T00:32:48.277Z,100633.09
2023-02-01T00:35:15.881Z,100630.94
2023-02-01T00:37:43.474Z,100626.81
2023-02-01T00:40:12.247Z,100628.50
2023-02-01T00:42:39.786Z,100623.41
2023-02-01T00:45:08.393Z,100638.94
2023-02-01T00:47:37.264Z,100628.94
2023-02-01T00:50:05.361Z,100624.31
2023-02-01T00:52:32.969Z,100631.53
2023-02-01T00:55:00.418Z,100631.78
2023-02-01T00:57:27.844Z,100628.66
2023-02-01T00:59:55.300Z,100625.84
2023-02-01T01:02:22.768Z,100624.94
2023-02-01T01:04:51.630Z,100614.06
2023-02-01T01:07:19.084Z,100624.53
2023-02-01T01:09:46.605Z,100614.06
2023-02-01T01:12:14.088Z,100618.66
2023-02-01T01:14:41.496Z,100630.56
2023-02-01T01:17:09.116Z,100617.22
2023-02-01T01:19:36.659Z,100612.69
2023-02-01T01:22:05.697Z,100615.59
2023-02-01T01:24:33.288Z,100618.66
2023-02-01T01:27:00.975Z,100612.09
2023-02-01T01:29:28.666Z,100617.63
2023-02-01T01:31:56.291Z,100608.00
2023-02-01T01:34:23.848Z,100611.03
2023-02-01T01:36:51.447Z,100612.06
2023-02-01T01:39:20.272Z,100600.78
2023-02-01T01:41:47.734Z,100589.47
2023-02-01T01:44:52.979Z,100588.22
2023-02-01T01:47:20.648Z,100586.97
2023-02-01T01:49:48.219Z,100590.91
2023-02-01T01:52:16.101Z,100575.94
2023-02-01T01:54:47.775Z,100563.59
2023-02-01T01:57:19.523Z,100568.56
2023-02-01T01:59:50.371Z,100580.91
2023-02-01T02:02:18.246Z,100562.81
2023-02-01T02:04:45.843Z,100546.84
2023-02-01T02:07:16.721Z,100551.34
2023-02-01T02:09:54.636Z,100553.38
2023-02-01T02:12:27.281Z,100539.84
2023-02-01T02:14:56.222Z,100540.84
2023-02-01T02:17:32.705Z,100544.38
2023-02-01T02:20:38.416Z,100540.25
2023-02-01T02:23:41.910Z,100529.59
2023-02-01T02:26:30.278Z,100524.84
2023-02-01T02:29:31.729Z,100522.50
2023-02-01T02:32:09.471Z,100523.81
2023-02-01T02:34:40.962Z,100523.41
2023-02-01T02:37:16.009Z,100501.88
2023-02-01T02:39:50.386Z,100525.72
2023-02-01T02:42:39.955Z,100501.69
2023-02-01T02:45:28.868Z,100507.03
2023-02-01T02:48:00.171Z,100499.38
2023-02-01T02:50:48.961Z,100500.81
2023-02-01T02:53:37.297Z,100501.59
2023-02-01T02:56:24.319Z,100497.38
2023-02-01T02:59:10.105Z,100502.88
2023-02-01T03:01:55.817Z,100508.66
2023-02-01T03:04:24.591Z,100495.66
2023-02-01T03:06:54.023Z,100502.03
2023-02-01T03:09:25.224Z,100508.25
2023-02-01T03:12:16.050Z,100491.91
2023-02-01T03:14:46.368Z,100498.41
2023-02-01T03:17:16.015Z,100489.78
2023-02-01T03:19:50.317Z,100481.56
2023-02-01T03:22:22.030Z,100483.81
2023-02-01T03:24:52.635Z,100482.97
2023-02-01T03:27:24.686Z,100467.41
2023-02-01T03:29:54.509Z,100474.88
2023-02-01T03:32:22.038Z,100477.91
2023-02-01T03:34:50.798Z,100472.66
2023-02-01T03:37:24.816Z,100474.69
2023-02-01T03:39:55.768Z,100474.22
2023-02-01T03:42:26.887Z,100462.06
2023-02-01T03:44:59.079Z,100462.00
2023-02-01T03:47:28.654Z,100448.66
2023-02-01T03:49:58.609Z,100475.75
2023-02-01T03:52:30.687Z,100475.44
2023-02-01T03:54:58.845Z,100490.03
2023-02-01T03:57:29.643Z,100499.06
2023-02-01T04:00:07.373Z,100492.00
2023-02-01T04:02:35.373Z,100501.56
2023-02-01T04:05:02.840Z,100458.16
2023-02-01T04:07:31.624Z,100464.88
2023-02-01T04:09:59.163Z,100445.03
2023-02-01T04:12:26.688Z,100460.97
2023-02-01T04:14:54.188Z,100444.72
2023-02-01T04:17:21.602Z,100455.59
2023-02-01T04:19:49.377Z,100444.28
2023-02-01T04:22:16.910Z,100439.88
2023-02-01T04:24:45.779Z,100432.34
2023-02-01T04:27:13.248Z,100438.16
2023-02-01T04:29:40.739Z,100433.00
2023-02-01T04:32:08.127Z,100434.44
2023-02-01T04:34:35.802Z,100425.81
2023-02-01T04:37:03.425Z,100421.44
2023-02-01T04:39:30.867Z,100429.22
2023-02-01T04:41:59.684Z,100425.97
2023-02-01T04:44:27.194Z,100422.31
2023-02-01T04:46:54.676Z,100432.28
2023-02-01T04:49:22.407Z,100417.19
2023-02-01T04:51:50.075Z,100420.16
2023-02-01T04:54:17.571Z,100412.75
2023-02-01T04:56:45.166Z,100420.16
2023-02-01T04:59:14.296Z,100414.03
2023-02-01T05:01:41.969Z,100406.78
2023-02-01T05:04:09.550Z,100401.81
2023-02-01T05:06:37.107Z,100409.84
2023-02-01T05:09:04.829Z,100416.41
2023-02-01T05:11:50.135Z,100407.31
2023-02-01T05:14:19.087Z,100415.53
2023-02-01T05:16:46.525Z,100406.84
2023-02-01T05:19:14.043Z,100406.09
2023-02-01T05:21:41.531Z,100404.44
2023-02-01T05:24:14.154Z,100405.78
2023-02-01T05:26:42.363Z,100400.06
2023-02-01T05:29:11.027Z,100403.09
2023-02-01T05:31:40.412Z,100396.88
2023-02-01T05:34:08.690Z,100389.19
2023-02-01T05:36:36.157Z,100395.53
2023-02-01T05:39:03.865Z,100410.94
2023-02-01T05:41:31.336Z,100429.09
2023-02-01T05:43:58.867Z,100436.22
2023-02-01T05:46:27.054Z,100436.41
2023-02-01T05:48:55.907Z,100438.28
2023-02-01T05:51:23.442Z,100434.84
2023-02-01T05:53:50.947Z,100408.19
2023-02-01T05:56:18.561Z,100395.78
2023-02-01T05:58:46.105Z,100404.81
2023-02-01T06:01:13.592Z,100404.19
2023-02-01T06:03:41.139Z,100396.19
2023-02-01T06:06:10.277Z,100397.88
2023-02-01T06:08:37.767Z,100396.25
2023-02-01T06:11:06.552Z,100407.03
2023-02-01T06:32:30.844Z,100415.16
2023-02-01T06:40:45.952Z,100405.09
2023-02-01T06:43:13.418Z,100400.09
2023-02-01T06:45:42.662Z,100401.13
2023-02-01T06:48:11.597Z,100394.53
2023-02-01T06:50:39.013Z,100395.41
2023-02-01T06:53:06.405Z,100408.97
2023-02-01T06:55:33.797Z,100412.97
2023-02-01T06:58:03.731Z,100408.38
2023-02-01T07:00:31.579Z,100421.25
2023-02-01T07:02:59.781Z,100431.88
2023-02-01T07:05:28.481Z,100431.69
2023-02-01T07:07:55.910Z,100425.28
2023-02-01T07:10:23.610Z,100423.66
2023-02-01T07:12:51.152Z,100426.91
2023-02-01T07:15:18.797Z,100420.75
2023-02-01T07:17:47.715Z,100410.72
2023-02-01T07:20:15.386Z,100405.03
2023-02-01T07:22:44.307Z,100411.31
2023-02-01T07:25:11.848Z,100411.41
2023-02-01T07:27:39.486Z,100409.97
2023-02-01T07:30:08.535Z,100399.03
2023-02-01T07:32:36.152Z,100416.44
2023-02-01T07:35:03.676Z,100407.22
2023-02-01T07:37:31.754Z,100408.88
2023-02-01T07:40:00.545Z,100400.06
2023-02-01T07:42:28.037Z,100399.06
2023-02-01T07:44:55.520Z,100398.81
2023-02-01T07:47:23.084Z,100398.81
2023-02-01T07:49:50.591Z,100399.63
2023-02-01T07:52:17.984Z,100413.38
2023-02-01T07:54:45.420Z,100402.75
2023-02-01T07:57:14.355Z,100395.72
2023-02-01T08:00:02.019Z,100405.34
2023-02-01T08:02:28.515Z,100400.78
2023-02-01T08:04:56.027Z,100408.72
2023-02-01T08:07:23.474Z,100400.56
2023-02-01T08:09:50.991Z,100397.88
2023-02-01T08:12:19.758Z,100413.19
2023-02-01T08:14:47.130Z,100408.06
2023-02-01T08:17:14.707Z,100404.59
2023-02-01T08:19:42.172Z,100390.81
2023-02-01T08:22:09.702Z,100417.69
2023-02-01T08:24:38.943Z,100404.69
2023-02-01T08:27:06.429Z,100409.22
2023-02-01T08:29:35.498Z,100399.31
2023-02-01T08:32:04.148Z,100401.53
2023-02-01T08:34:32.452Z,100410.94
2023-02-01T08:37:01.076Z,100416.31
2023-02-01T08:39:28.986Z,100424.06
2023-02-01T08:42:10.451Z,100418.88
2023-02-01T08:44:39.407Z,100421.47
2023-02-01T08:47:06.781Z,100430.09
2023-02-01T08:49:34.431Z,100437.03
2023-02-01T08:52:07.194Z,100423.66
2023-02-01T08:54:43.074Z,100421.97
2023-02-01T08:57:11.508Z,100429.91
2023-02-01T08:59:40.407Z,100421.09
2023-02-01T09:02:07.868Z,100419.03
2023-02-01T09:04:35.361Z,100414.06
2023-02-01T09:07:02.891Z,100407.31
2023-02-01T09:09:30.608Z,100397.91
2023-02-01T09:11:58.272Z,100399.47
2023-02-01T09:14:25.813Z,100401.28
2023-02-01T09:16:54.873Z,100403.06
2023-02-01T09:19:26.485Z,100399.59
2023-02-01T09:21:54.393Z,100411.38
2023-02-01T09:24:21.869Z,100416.72
2023-02-01T09:26:49.896Z,100401.97
2023-02-01T09:29:17.452Z,100412.59
2023-02-01T09:31:57.424Z,100410.53
2023-02-01T09:34:31.969Z,100415.03
2023-02-01T09:36:59.457Z,100414.00
2023-02-01T09:39:27.062Z,100415.56
2023-02-01T09:42:02.023Z,100413.28
2023-02-01T09:44:44.237Z,100413.13
2023-02-01T09:47:13.543Z,100415.94
2023-02-01T09:49:51.404Z,100413.59
2023-02-01T09:52:20.689Z,100407.28
2023-02-01T09:54:51.769Z,100417.38
2023-02-01T09:57:23.209Z,100426.94
2023-02-01T09:59:54.191Z,100434.34
2023-02-01T10:02:24.627Z,100427.22
2023-02-01T10:04:56.352Z,100436.63
2023-02-01T10:07:28.796Z,100421.81
2023-02-01T10:10:02.736Z,100432.28
2023-02-01T10:12:51.598Z,100429.63
2023-02-01T10:15:38.009Z,100442.63
2023-02-01T10:18:19.734Z,100424.41
2023-02-01T10:20:58.146Z,100443.91
2023-02-01T10:23:56.133Z,100445.91
2023-02-01T10:26:25.403Z,100448.66
2023-02-01T10:28:54.858Z,100430.63
2023-02-01T10:31:24.947Z,100436.72
2023-02-01T10:33:57.459Z,100438.47
2023-02-01T10:36:31.430Z,100441.09
2023-02-01T10:38:59.527Z,100433.69
2023-02-01T10:41:32.471Z,100436.41
2023-02-01T10:44:00.805Z,100423.81
2023-02-01T10:46:28.637Z,100420.34
2023-02-01T10:48:57.955Z,100420.56
2023-02-01T10:51:29.663Z,100390.16
2023-02-01T10:53:59.670Z,100396.16
2023-02-01T10:56:28.604Z,100403.28
2023-02-01T10:59:03.042Z,100380.00
2023-02-01T11:01:33.000Z,100377.34
2023-02-01T11:04:02.310Z,100377.69
2023-02-01T11:06:32.786Z,100364.66
2023-02-01T11:09:02.653Z,100360.88
2023-02-01T11:11:30.248Z,100354.72
2023-02-01T11:14:00.541Z,100352.41
2023-02-01T11:16:35.656Z,100360.97
2023-02-01T11:19:03.574Z,100340.59
2023-02-01T11:21:32.876Z,100326.78
2023-02-01T11:24:03.360Z,100335.28
2023-02-01T11:26:32.131Z,100336.78
2023-02-01T11:29:01.810Z,100333.72
2023-02-01T11:31:30.199Z,100325.06
2023-02-01T11:34:01.458Z,100322.84
2023-02-01T11:36:31.213Z,100317.06
2023-02-01T11:39:16.868Z,100333.66
2023-02-01T11:41:46.254Z,100321.78
2023-02-01T11:44:23.865Z,100323.88
2023-02-01T11:46:51.465Z,100312.63
2023-02-01T11:49:24.131Z,100319.59
2023-02-01T11:52:06.292Z,100301.03
2023-02-01T11:54:54.325Z,100302.97
2023-02-01T11:57:34.555Z,100287.06
2023-02-01T12:00:16.143Z,100284.19
2023-02-01T12:03:07.844Z,100282.59
2023-02-01T12:05:42.223Z,100274.72
2023-02-01T12:08:23.727Z,100266.88
2023-02-01T12:11:00.950Z,100272.81
2023-02-01T12:13:39.925Z,100274.91
2023-02-01T12:16:17.694Z,100256.75
2023-02-01T12:19:01.883Z,100265.72
2023-02-01T12:21:48.053Z,100258.09
2023-02-01T12:24:35.891Z,100262.69
2023-02-01T12:27:17.124Z,100251.91
2023-02-01T12:30:03.794Z,100266.25
2023-02-01T12:32:42.279Z,100263.38
2023-02-01T12:35:28.344Z,100260.78
2023-02-01T12:38:22.581Z,100267.75
2023-02-01T12:40:59.819Z,100262.34
2023-02-01T12:43:38.495Z,100283.91
2023-02-01T12:46:08.627Z,100258.25
2023-02-01T12:48:42.962Z,100250.25
2023-02-01T12:51:14.429Z,100267.78
2023-02-01T12:53:48.182Z,100267.00
2023-02-01T12:56:18.696Z,100258.69
2023-02-01T12:58:49.989Z,100259.44
2023-02-01T13:01:20.506Z,100261.19
2023-02-01T13:03:56.245Z,100261.25
2023-02-01T13:06:27.226Z,100268.78
2023-02-01T13:08:59.138Z,100280.94
2023-02-01T13:11:30.499Z,100291.47
2023-02-01T13:14:03.337Z,100281.81
2023-02-01T13:16:33.540Z,100258.94
2023-02-01T13:19:10.097Z,100245.41
2023-02-01T13:21:42.191Z,100232.41
2023-02-01T13:24:24.065Z,100224.53
2023-02-01T13:26:51.577Z,100239.03
2023-02-01T13:29:21.877Z,100257.81
2023-02-01T13:32:03.074Z,100269.50
2023-02-01T13:34:55.187Z,100274.41
2023-02-01T13:37:38.339Z,100267.03
2023-02-01T13:40:22.964Z,100279.06
2023-02-01T13:42:52.583Z,100284.41
2023-02-01T13:45:23.994Z,100270.38
2023-02-01T13:47:55.271Z,100261.19
2023-02-01T13:50:25.965Z,100251.84
2023-02-01T13:52:56.315Z,100249.66
2023-02-01T13:55:32.984Z,100250.19
2023-02-01T13:58:15.539Z,100247.78
2023-02-01T14:00:45.832Z,100246.16
2023-02-01T14:03:21.868Z,100244.44
2023-02-01T14:06:19.176Z,100264.25
2023-02-01T14:08:53.813Z,100251.38
2023-02-01T14:11:40.436Z,100261.56
2023-02-01T14:14:44.414Z,100252.75
2023-02-01T14:17:35.897Z,100267.03
2023-02-01T14:20:54.263Z,100254.47
2023-02-01T14:23:26.334Z,100270.63
2023-02-01T14:26:12.564Z,100261.72
2023-02-01T14:28:49.352Z,100251.81
2023-02-01T14:31:20.213Z,100251.31
2023-02-01T14:33:49.089Z,100263.00
2023-02-01T14:36:16.855Z,100265.84
2023-02-01T14:38:51.175Z,100271.78
2023-02-01T14:41:27.716Z,100283.94
2023-02-01T14:44:25.633Z,100290.84
2023-02-01T14:47:13.389Z,100277.06
2023-02-01T14:49:51.139Z,100274.91
2023-02-01T14:52:22.596Z,100266.09
2023-02-01T14:54:56.471Z,100277.47
2023-02-01T14:57:27.810Z,100280.16
2023-02-01T15:00:04.191Z,100269.75
2023-02-01T15:02:34.838Z,100307.25
2023-02-01T15:05:04.378Z,100356.94
2023-02-01T15:07:31.871Z,100330.66
2023-02-01T15:10:00.090Z,100325.34
2023-02-01T15:12:32.588Z,100336.38
2023-02-01T15:15:13.818Z,100337.44
2023-02-01T15:17:41.441Z,100338.91
2023-02-01T15:20:19.089Z,100348.03
2023-02-01T15:22:54.794Z,100343.94
2023-02-01T15:25:24.863Z,100355.38
2023-02-01T15:27:53.402Z,100330.22
2023-02-01T15:30:23.752Z,100333.28
2023-02-01T15:32:51.914Z,100339.13
2023-02-01T15:35:44.426Z,100323.69
2023-02-01T15:38:41.828Z,100333.09
2023-02-01T15:41:14.093Z,100341.13
2023-02-01T15:43:43.690Z,100349.94
2023-02-01T15:46:14.770Z,100339.72
2023-02-01T15:48:46.578Z,100332.41
2023-02-01T15:51:19.258Z,100332.81
2023-02-01T15:53:49.787Z,100342.06
2023-02-01T15:56:18.164Z,100339.56
2023-02-01T15:58:48.350Z,100346.56
2023-02-01T16:01:15.940Z,100339.25
2023-02-01T16:03:44.943Z,100344.94
2023-02-01T16:06:13.954Z,100345.03
2023-02-01T16:08:53.302Z,100353.84
2023-02-01T16:11:28.436Z,100359.94
2023-02-01T16:13:56.202Z,100353.06
2023-02-01T16:16:23.774Z,100361.81
2023-02-01T16:18:51.382Z,100363.69
2023-02-01T16:21:18.978Z,100367.41
2023-02-01T16:23:52.669Z,100364.94
2023-02-01T16:26:20.556Z,100378.59
2023-02-01T16:28:48.758Z,100370.16
2023-02-01T16:31:20.300Z,100371.13
2023-02-01T16:33:49.485Z,100388.53
2023-02-01T16:36:17.387Z,100388.06
2023-02-01T16:38:45.015Z,100396.59
2023-02-01T16:41:16.750Z,100397.84
2023-02-01T16:43:44.339Z,100403.53
2023-02-01T16:46:16.545Z,100396.22
2023-02-01T16:48:46.566Z,100394.44
2023-02-01T16:51:17.005Z,100407.81
2023-02-01T16:53:53.857Z,100408.81
2023-02-01T16:56:25.316Z,100408.69
2023-02-01T16:58:53.408Z,100408.91
2023-02-01T17:01:21.312Z,100412.06
2023-02-01T17:03:49.103Z,100412.22
2023-02-01T17:06:18.671Z,100410.09
2023-02-01T17:08:48.648Z,100402.59
2023-02-01T17:11:16.262Z,100404.06
2023-02-01T17:13:46.343Z,100405.28
2023-02-01T17:16:23.052Z,100421.69
2023-02-01T17:18:55.639Z,100411.88
2023-02-01T17:21:23.354Z,100422.50
2023-02-01T17:23:51.156Z,100421.81
2023-02-01T17:26:18.706Z,100414.81
2023-02-01T17:28:47.772Z,100420.09
2023-02-01T17:31:19.819Z,100416.50
2023-02-01T17:33:47.289Z,100436.47
2023-02-01T17:36:16.522Z,100419.44
2023-02-01T17:38:48.788Z,100420.97
2023-02-01T17:41:21.448Z,100416.22
2023-02-01T17:43:50.502Z,100420.44
2023-02-01T17:46:21.003Z,100432.22
2023-02-01T17:48:48.442Z,100437.16
2023-02-01T17:51:17.678Z,100441.06
2023-02-01T17:53:45.967Z,100444.22
2023-02-01T17:56:15.547Z,100445.84
2023-02-01T17:58:43.260Z,100441.13
2023-02-01T18:01:15.237Z,100441.91
2023-02-01T18:03:43.212Z,100460.38
2023-02-01T18:06:15.146Z,100447.59
2023-02-01T18:08:42.847Z,100450.66
2023-02-01T18:11:13.392Z,100460.31
2023-02-01T18:13:40.909Z,100437.84
2023-02-01T18:16:17.435Z,100444.56
2023-02-01T18:18:44.865Z,100440.66
2023-02-01T18:21:12.268Z,100434.75
2023-02-01T18:23:39.787Z,100442.44
2023-02-01T18:26:07.378Z,100431.41
2023-02-01T18:28:34.825Z,100429.53
2023-02-01T18:31:02.990Z,100431.88
2023-02-01T18:33:31.782Z,100426.31
2023-02-01T18:35:59.242Z,100427.16
2023-02-01T18:38:26.614Z,100428.22
2023-02-01T18:40:57.963Z,100432.75
2023-02-01T18:43:26.499Z,100426.13
2023-02-01T18:45:55.001Z,100414.91
2023-02-01T18:48:22.921Z,100416.56
2023-02-01T18:50:57.077Z,100417.78
2023-02-01T18:53:27.130Z,100413.25
2023-02-01T18:55:55.817Z,100411.63
2023-02-01T18:58:26.301Z,100410.03
2023-02-01T19:00:54.602Z,100413.31
2023-02-01T19:03:26.073Z,100411.63
2023-02-01T19:05:56.140Z,100418.75
2023-02-01T19:08:24.403Z,100416.53
2023-02-01T19:10:52.451Z,100424.16
2023-02-01T19:13:23.340Z,100434.19
2023-02-01T19:15:51.402Z,100424.34
2023-02-01T19:18:20.285Z,100423.28
2023-02-01T19:20:50.751Z,100421.88
2023-02-01T19:23:19.761Z,100436.06
2023-02-01T19:25:49.056Z,100414.94
2023-02-01T19:28:17.062Z,100414.19
2023-02-01T19:30:44.846Z,100428.13
2023-02-01T19:33:12.454Z,100428.31
2023-02-01T19:35:40.304Z,100431.13
2023-02-01T19:38:07.817Z,100424.97
2023-02-01T19:40:36.788Z,100412.50
2023-02-01T19:43:04.242Z,100412.94
2023-02-01T19:45:31.644Z,100439.16
2023-02-01T19:47:59.554Z,100439.56
2023-02-01T19:50:27.039Z,100422.75
2023-02-01T19:52:54.544Z,100420.34
2023-02-01T19:55:22.420Z,100425.63
2023-02-01T19:57:51.355Z,100422.75
2023-02-01T20:00:21.487Z,100421.47
2023-02-01T20:02:49.183Z,100424.97
2023-02-01T20:05:18.825Z,100415.53
2023-02-01T20:07:46.367Z,100409.22
2023-02-01T20:10:15.346Z,100420.91
2023-02-01T20:12:44.445Z,100424.19
2023-02-01T20:15:13.405Z,100433.63
2023-02-01T20:17:40.914Z,100439.88
2023-02-01T20:20:09.909Z,100435.56
2023-02-01T20:22:37.365Z,100446.44
2023-02-01T20:25:05.552Z,100424.31
2023-02-01T20:27:34.014Z,100410.00
2023-02-01T20:30:01.475Z,100411.97
2023-02-01T20:32:30.296Z,100415.25
2023-02-01T20:34:57.766Z,100417.09
2023-02-01T20:37:25.370Z,100421.00
2023-02-01T20:39:52.840Z,100434.13
2023-02-01T20:42:20.335Z,100441.53
2023-02-01T20:44:47.850Z,100441.03
2023-02-01T20:47:15.443Z,100453.03
2023-02-01T20:49:44.514Z,100452.44
2023-02-01T20:52:12.032Z,100440.75
2023-02-01T20:54:39.515Z,100440.13
2023-02-01T20:57:07.311Z,100434.91
2023-02-01T20:59:34.839Z,100442.88
2023-02-01T21:02:02.904Z,100452.50
2023-02-01T21:04:30.759Z,100456.41
2023-02-01T21:07:00.226Z,100454.19
2023-02-01T21:09:29.939Z,100451.25
2023-02-01T21:11:57.481Z,100449.72
2023-02-01T21:14:24.982Z,100448.34
2023-02-01T21:16:52.511Z,100428.47
2023-02-01T21:19:20.685Z,100447.13
2023-02-01T21:21:48.244Z,100430.34
2023-02-01T21:24:17.117Z,100442.66
2023-02-01T21:26:44.720Z,100444.63
2023-02-01T21:29:13.374Z,100449.38
2023-02-01T21:31:41.708Z,100464.56
2023-02-01T21:34:09.982Z,100466.63
2023-02-01T21:36:37.568Z,100473.31
2023-02-01T21:39:06.708Z,100466.16
2023-02-01T21:41:54.566Z,100487.53
2023-02-01T21:44:22.473Z,100482.97
2023-02-01T21:46:50.257Z,100497.34
2023-02-01T21:49:17.919Z,100487.63
2023-02-01T21:51:45.321Z,100492.19
2023-02-01T21:54:13.046Z,100509.81
2023-02-01T21:56:42.157Z,100506.06
2023-02-01T21:59:10.119Z,100496.69
2023-02-01T22:01:39.513Z,100509.19
2023-02-01T22:04:07.398Z,100499.94
2023-02-01T22:06:36.527Z,100506.25
2023-02-01T22:15:11.361Z,100502.19
2023-02-01T22:17:39.047Z,100514.75
2023-02-01T22:20:07.429Z,100511.44
2023-02-01T22:22:35.081Z,100505.31
2023-02-01T22:25:02.622Z,100524.41
2023-02-01T22:28:31.309Z,100519.41
2023-02-01T22:30:19.319Z,100528.03
2023-02-01T22:32:47.337Z,100522.84
2023-02-01T22:35:15.009Z,100508.13
2023-02-01T22:37:44.335Z,100520.81
2023-02-01T22:40:13.248Z,100498.84
2023-02-01T22:45:16.300Z,100512.94
2023-02-01T22:47:50.154Z,100520.84
2023-02-01T22:50:19.870Z,100493.72
2023-02-01T22:52:47.787Z,100518.75
2023-02-01T22:55:18.752Z,100514.63
2023-02-01T22:57:46.587Z,100504.81
2023-02-01T23:00:15.258Z,100509.28
2023-02-01T23:05:34.329Z,100515.94
2023-02-01T23:10:43.932Z,100515.47
2023-02-01T23:16:37.210Z,100518.53
2023-02-01T23:22:24.834Z,100512.81
2023-02-01T23:24:52.675Z,100514.00
2023-02-01T23:27:20.764Z,100512.59
2023-02-01T23:32:42.695Z,100554.03
2023-02-01T23:35:13.068Z,100537.78
2023-02-01T23:37:42.064Z,100570.41
2023-02-01T23:40:11.131Z,100555.66
2023-02-01T23:42:39.715Z,100560.97
2023-02-01T23:45:07.324Z,100560.56
2023-02-01T23:47:37.197Z,100563.63
2023-02-01T23:50:05.428Z,100566.31
2023-02-01T23:52:33.424Z,100578.22
2023-02-01T23:55:03.606Z,100568.97
2023-02-01T23:57:31.463Z,100576.19
